Limon, CO (80826)

5:37 AM MST on February 06, 2016 (GMT -0700)
Limon, CO | | Change Station
CLOSE
Current Station
Personal Weather Station
Location: Limon, CO
Elevation: 5361 ft
Nearby Weather Stations

Elev 5361 ft 39.27 °N, 103.68 °W | Updated 1 minute ago

Clear
Clear
4.9 °F
Feels Like 5 °F
N
3.0
Wind Variable Wind from NNW
Gusts 4.0 mph

Today
High -- | Low -- °F
--% Chance of Precip.
Yesterday
High -- | Low -- °F
Precip. -- in
Pressure 30.47 in
Visibility 10.0 miles
Clouds Clear
Windchill 5 °F
Dew Point -1 °F
Humidity 78%
Rainfall 0.00 in
Snow Depth Not available.
6:57 AM 5:20 PM
Waning Crescent, 6% visible
METAR KLIC 061155Z AUTO 33005KT 10SM CLR M19/M22 A3023 RMK AO2 SLP318 T11941217 11156 21211 56012
Pressure 30.47 in
Visibility 10.0 miles
Clouds Clear
Windchill 5 °F
Dew Point -1 °F
Humidity 78%
Rainfall 0.00 in
Snow Depth Not available.
6:57 AM 5:20 PM
Waning Crescent, 6% visible
METAR KLIC 061155Z AUTO 33005KT 10SM CLR M19/M22 A3023 RMK AO2 SLP318 T11941217 11156 21211 56012

10-Day Weather Forecast

Almanac

Astronomy

Feb. 06, 2016 Rise Set
Actual Time
Civil Twilight
Nautical Twilight
Astronomical Twilight
Moon
Length of Visible Light
Length of Day
Tomorrow will be .
, % of the Moon is Illuminated

Today's Extremes

State Highs State Lows

Community

WunderPhotos

Upload Photos

1,890,950 photos uploaded!

WunderBlog® & News

Nearby

Air Quality

  Air Quality AQ Index Pollutant
Not available.

Snow Depth

Station Depth Elevation

Earthquake Activity

City Distance Mag. Time & Date
Minimum magnitude displayed is 2.5.

Coastal Water Temperatures

Place Temperature

Stations

Nearby Weather Stations

Station Location Temp. Windchill Dew Point Humidity Wind Precip. Elev Updated Type
                   

Watches & Warnings

There are currently no watches in effect.